createdAt,value
2023-05-11T00:04:08.436Z,20.45
2023-05-11T00:09:13.925Z,20.50
2023-05-11T00:14:18.740Z,20.58
2023-05-11T00:19:24.484Z,20.65
2023-05-11T00:24:29.874Z,20.72
2023-05-11T00:29:35.037Z,20.76
2023-05-11T00:34:40.458Z,20.83
2023-05-11T00:39:45.343Z,20.92
2023-05-11T00:44:50.371Z,21.04
2023-05-11T00:49:56.227Z,21.12
2023-05-11T00:55:00.935Z,21.29
2023-05-11T01:00:06.019Z,21.49
2023-05-11T01:05:10.542Z,21.64
2023-05-11T01:10:35.871Z,21.80
2023-05-11T01:15:53.843Z,21.95
2023-05-11T01:21:06.724Z,22.09
2023-05-11T01:26:30.067Z,22.24
2023-05-11T01:31:37.375Z,22.34
2023-05-11T01:36:53.177Z,22.42
2023-05-11T01:42:06.133Z,22.48
2023-05-11T01:47:14.958Z,22.60
2023-05-11T01:52:22.763Z,22.81
2023-05-11T01:57:29.900Z,22.98
2023-05-11T02:02:37.110Z,23.14
2023-05-11T02:07:46.402Z,23.29
2023-05-11T02:12:53.657Z,23.45
2023-05-11T02:18:01.098Z,23.60
2023-05-11T02:23:08.852Z,23.74
2023-05-11T02:28:14.173Z,23.92
2023-05-11T02:33:33.843Z,24.06
2023-05-11T02:38:41.220Z,24.14
2023-05-11T02:43:52.262Z,24.19
2023-05-11T02:49:02.314Z,24.32
2023-05-11T02:54:12.587Z,24.48
2023-05-11T02:59:23.007Z,24.60
2023-05-11T03:04:28.613Z,24.66
2023-05-11T03:09:36.224Z,24.72
2023-05-11T03:14:42.501Z,24.80
2023-05-11T03:19:48.668Z,24.99
2023-05-11T03:24:55.165Z,25.13
2023-05-11T03:30:01.966Z,25.33
2023-05-11T03:35:13.075Z,25.46
2023-05-11T03:40:21.231Z,25.58
2023-05-11T03:45:32.852Z,25.61
2023-05-11T03:50:41.371Z,25.67
2023-05-11T03:55:46.519Z,25.77
2023-05-11T04:00:52.123Z,25.87
2023-05-11T04:05:57.305Z,25.97
2023-05-11T04:11:03.134Z,26.07
2023-05-11T04:16:09.057Z,26.20
2023-05-11T04:21:15.687Z,26.29
2023-05-11T04:26:20.716Z,26.35
2023-05-11T04:31:25.646Z,26.43
2023-05-11T04:36:31.316Z,26.51
2023-05-11T04:41:36.850Z,26.53
2023-05-11T04:46:41.755Z,26.56
2023-05-11T04:51:48.283Z,26.53
2023-05-11T04:56:53.541Z,26.51
2023-05-11T05:02:00.487Z,26.53
2023-05-11T05:07:05.884Z,26.52
2023-05-11T05:12:10.728Z,26.54
2023-05-11T05:17:15.881Z,26.59
2023-05-11T05:22:25.926Z,26.52
2023-05-11T05:27:34.921Z,26.53
2023-05-11T05:32:44.335Z,26.44
2023-05-11T05:37:49.543Z,26.41
2023-05-11T05:42:56.630Z,26.42
2023-05-11T05:48:03.025Z,26.41
2023-05-11T05:53:09.079Z,26.34
2023-05-11T05:58:15.162Z,26.34
2023-05-11T06:03:22.476Z,26.33
2023-05-11T06:08:32.338Z,26.30
2023-05-11T06:13:37.497Z,26.25
2023-05-11T06:18:44.678Z,26.19
2023-05-11T06:23:50.504Z,26.08
2023-05-11T06:28:56.196Z,25.97
2023-05-11T06:34:02.275Z,25.83
2023-05-11T06:39:09.067Z,25.54
2023-05-11T06:44:14.497Z,25.44
2023-05-11T06:49:22.728Z,25.30
2023-05-11T06:54:27.932Z,25.18
2023-05-11T06:59:34.005Z,25.10
2023-05-11T07:04:39.117Z,24.97
2023-05-11T07:09:44.060Z,24.77
2023-05-11T07:14:48.874Z,24.63
2023-05-11T07:19:54.077Z,24.57
2023-05-11T07:24:59.016Z,24.43
2023-05-11T07:30:05.150Z,24.47
2023-05-11T07:35:10.706Z,24.35
2023-05-11T07:40:19.687Z,24.37
2023-05-11T07:45:24.778Z,24.46
2023-05-11T07:50:29.954Z,24.39
2023-05-11T07:55:34.781Z,24.33
2023-05-11T08:00:39.500Z,24.35
2023-05-11T08:05:45.969Z,24.48
2023-05-11T08:10:50.813Z,24.42
2023-05-11T08:15:55.864Z,24.29
2023-05-11T08:21:01.512Z,24.36
2023-05-11T08:26:06.533Z,24.36
2023-05-11T08:31:11.569Z,24.39
2023-05-11T08:36:16.692Z,24.47
2023-05-11T08:41:21.415Z,24.55
2023-05-11T08:46:30.896Z,24.58
2023-05-11T08:51:43.329Z,24.53
2023-05-11T08:56:53.846Z,24.54
2023-05-11T09:02:00.161Z,24.51
2023-05-11T09:07:05.362Z,24.47
2023-05-11T09:12:15.364Z,24.42
2023-05-11T09:17:20.393Z,24.46
2023-05-11T09:22:26.487Z,24.51
2023-05-11T09:27:33.461Z,24.63
2023-05-11T09:33:04.764Z,24.71
2023-05-11T09:38:12.110Z,24.71
2023-05-11T09:43:23.050Z,24.67
2023-05-11T09:48:33.608Z,24.69
2023-05-11T09:53:47.554Z,24.58
2023-05-11T09:58:56.070Z,24.51
2023-05-11T10:04:21.069Z,24.34
2023-05-11T10:09:28.640Z,24.24
2023-05-11T10:14:35.354Z,24.09
2023-05-11T10:19:40.713Z,24.04
2023-05-11T10:24:46.140Z,24.05
2023-05-11T10:29:51.992Z,24.04
2023-05-11T10:34:58.752Z,24.00
2023-05-11T10:40:04.185Z,23.99
2023-05-11T10:45:09.124Z,23.92
2023-05-11T10:50:42.738Z,23.88
2023-05-11T10:56:28.325Z,23.83
2023-05-11T11:01:42.502Z,23.74
2023-05-11T11:06:48.081Z,23.61
2023-05-11T11:11:54.189Z,23.48
2023-05-11T11:17:28.447Z,23.33
2023-05-11T11:22:39.939Z,23.19
2023-05-11T11:27:59.454Z,23.02
2023-05-11T11:33:12.855Z,22.94
2023-05-11T11:38:23.016Z,22.81
2023-05-11T11:43:30.954Z,22.67
2023-05-11T11:48:43.617Z,22.53
2023-05-11T11:53:53.167Z,22.41
2023-05-11T11:59:02.369Z,22.30
2023-05-11T12:04:07.869Z,22.21
2023-05-11T12:09:13.098Z,22.08
2023-05-11T12:14:19.416Z,21.98
2023-05-11T12:19:26.900Z,21.86
2023-05-11T12:24:33.491Z,21.74
2023-05-11T12:29:40.779Z,21.62
2023-05-11T12:35:03.619Z,21.51
2023-05-11T12:40:13.025Z,21.40
2023-05-11T12:45:20.122Z,21.30
2023-05-11T12:50:26.378Z,21.21
2023-05-11T12:55:32.949Z,21.13
2023-05-11T13:00:38.638Z,21.06
2023-05-11T13:05:44.419Z,20.99
2023-05-11T13:10:50.922Z,20.92
2023-05-11T13:15:59.980Z,20.83
2023-05-11T13:21:10.004Z,20.80
2023-05-11T13:26:25.801Z,20.75
2023-05-11T13:31:34.795Z,20.68
2023-05-11T13:36:42.996Z,20.64
2023-05-11T13:41:48.828Z,20.58
2023-05-11T13:46:55.261Z,20.56
2023-05-11T13:52:02.790Z,20.49
2023-05-11T13:57:09.527Z,20.43
2023-05-11T14:02:15.653Z,20.39
2023-05-11T14:07:23.869Z,20.34
2023-05-11T14:12:31.075Z,20.38
2023-05-11T14:17:36.626Z,20.34
2023-05-11T14:22:46.250Z,20.36
2023-05-11T14:27:55.760Z,20.34
2023-05-11T14:33:02.367Z,20.31
2023-05-11T14:38:09.678Z,20.32
2023-05-11T14:43:18.253Z,20.38
2023-05-11T14:48:32.586Z,20.32
2023-05-11T14:53:38.193Z,20.30
2023-05-11T14:58:44.771Z,20.25
2023-05-11T15:03:50.737Z,20.17
2023-05-11T15:08:56.415Z,20.11
2023-05-11T15:14:02.444Z,20.04
2023-05-11T15:19:11.877Z,20.00
2023-05-11T15:24:17.414Z,19.93
2023-05-11T15:29:23.547Z,19.90
2023-05-11T15:34:29.423Z,19.85
2023-05-11T15:39:35.540Z,19.79
2023-05-11T15:44:41.252Z,19.72
2023-05-11T15:49:46.940Z,19.66
2023-05-11T15:54:52.780Z,19.58
2023-05-11T15:59:59.054Z,19.51
2023-05-11T16:05:06.104Z,19.42
2023-05-11T16:10:12.351Z,19.40
2023-05-11T16:15:18.401Z,19.32
2023-05-11T16:20:24.733Z,19.19
2023-05-11T16:25:31.048Z,19.06
2023-05-11T16:30:38.600Z,19.02
2023-05-11T16:35:45.452Z,18.97
2023-05-11T16:40:51.928Z,18.84
2023-05-11T16:45:58.239Z,18.75
2023-05-11T16:51:03.701Z,18.69
2023-05-11T16:56:09.311Z,18.59
2023-05-11T17:01:14.056Z,18.57
2023-05-11T17:06:21.573Z,18.55
2023-05-11T17:11:27.059Z,18.52
2023-05-11T17:16:32.510Z,18.45
2023-05-11T17:21:37.822Z,18.38
2023-05-11T17:26:47.782Z,18.30
2023-05-11T17:31:54.041Z,18.22
2023-05-11T17:36:59.835Z,18.09
2023-05-11T17:42:04.907Z,17.95
2023-05-11T17:47:10.327Z,17.85
2023-05-11T17:52:18.331Z,17.82
2023-05-11T17:57:24.942Z,17.79
2023-05-11T18:02:30.362Z,17.70
2023-05-11T18:07:36.036Z,17.63
2023-05-11T18:12:41.310Z,17.54
2023-05-11T18:17:46.521Z,17.53
2023-05-11T18:22:51.987Z,17.52
2023-05-11T18:27:56.458Z,17.47
2023-05-11T18:33:03.150Z,17.45
2023-05-11T18:38:09.069Z,17.42
2023-05-11T18:43:15.131Z,17.40
2023-05-11T18:48:21.634Z,17.37
2023-05-11T18:53:28.756Z,17.36
2023-05-11T18:58:34.216Z,17.34
2023-05-11T19:03:39.843Z,17.31
2023-05-11T19:08:45.190Z,17.28
2023-05-11T19:13:51.667Z,17.25
2023-05-11T19:18:58.184Z,17.19
2023-05-11T19:24:03.530Z,17.16
2023-05-11T19:29:15.158Z,17.15
2023-05-11T19:34:20.503Z,17.10
2023-05-11T19:39:26.422Z,17.11
2023-05-11T19:44:35.788Z,17.09
2023-05-11T19:49:41.406Z,17.03
2023-05-11T19:54:46.822Z,16.99
2023-05-11T19:59:52.213Z,16.94
2023-05-11T20:04:57.548Z,16.85
2023-05-11T20:10:03.109Z,16.84
2023-05-11T20:15:10.271Z,16.75
2023-05-11T20:20:15.756Z,16.65
2023-05-11T20:25:21.610Z,16.59
2023-05-11T20:30:27.122Z,16.54
2023-05-11T20:35:34.210Z,16.49
2023-05-11T20:40:39.949Z,16.41
2023-05-11T20:45:45.234Z,16.33
2023-05-11T20:50:55.478Z,16.28
2023-05-11T20:56:02.459Z,16.23
2023-05-11T21:01:07.938Z,16.16
2023-05-11T21:06:13.117Z,16.09
2023-05-11T21:11:18.213Z,16.12
2023-05-11T21:16:22.963Z,16.13
2023-05-11T21:21:28.010Z,16.15
2023-05-11T21:26:33.077Z,16.13
2023-05-11T21:31:38.144Z,16.11
2023-05-11T21:36:43.389Z,16.11
2023-05-11T21:41:49.125Z,16.09
2023-05-11T21:46:54.263Z,16.04
2023-05-11T21:51:59.261Z,16.06
2023-05-11T21:57:05.125Z,16.13
2023-05-11T22:02:10.098Z,16.19
2023-05-11T22:07:15.308Z,16.25
2023-05-11T22:12:20.083Z,16.28
2023-05-11T22:17:24.983Z,16.31
2023-05-11T22:22:30.214Z,16.36
2023-05-11T22:27:36.465Z,16.34
2023-05-11T22:32:41.544Z,16.40
2023-05-11T22:37:46.518Z,16.43
2023-05-11T22:42:51.715Z,16.45
2023-05-11T22:47:56.737Z,16.52
2023-05-11T22:53:01.952Z,16.57
2023-05-11T22:58:06.920Z,16.64
2023-05-11T23:03:13.004Z,16.74
2023-05-11T23:08:18.062Z,16.89
2023-05-11T23:13:23.772Z,17.01
2023-05-11T23:18:29.627Z,17.15
2023-05-11T23:23:34.466Z,17.31
2023-05-11T23:28:39.325Z,17.51
2023-05-11T23:33:44.366Z,17.68
2023-05-11T23:38:49.464Z,17.86
2023-05-11T23:43:54.095Z,18.04
2023-05-11T23:48:59.020Z,18.22
2023-05-11T23:54:03.944Z,18.39
2023-05-11T23:59:08.749Z,18.55
